createdAt,value
2023-05-22T00:01:29.082Z,12.10
2023-05-22T00:03:57.527Z,12.10
2023-05-22T00:06:24.801Z,12.10
2023-05-22T00:08:51.952Z,12.10
2023-05-22T00:11:19.271Z,12.00
2023-05-22T00:13:46.682Z,12.00
2023-05-22T00:16:13.923Z,12.00
2023-05-22T00:18:43.073Z,12.00
2023-05-22T00:21:10.638Z,11.90
2023-05-22T00:23:37.697Z,11.90
2023-05-22T00:26:04.977Z,11.90
2023-05-22T00:28:34.580Z,11.90
2023-05-22T00:31:01.728Z,11.80
2023-05-22T00:33:29.273Z,11.80
2023-05-22T00:35:56.925Z,11.80
2023-05-22T00:38:27.718Z,11.80
2023-05-22T00:40:55.095Z,11.70
2023-05-22T00:43:22.293Z,11.70
2023-05-22T00:45:49.650Z,11.70
2023-05-22T00:48:17.042Z,11.70
2023-05-22T00:50:44.240Z,11.70
2023-05-22T00:53:11.631Z,11.70
2023-05-22T00:55:38.841Z,11.70
2023-05-22T00:58:07.917Z,11.60
2023-05-22T01:00:37.021Z,11.60
2023-05-22T01:03:04.803Z,11.60
2023-05-22T01:05:33.336Z,11.60
2023-05-22T01:08:00.615Z,11.60
2023-05-22T01:10:28.173Z,11.50
2023-05-22T01:13:05.113Z,11.60
2023-05-22T01:15:47.986Z,11.50
2023-05-22T01:18:19.963Z,11.50
2023-05-22T01:20:50.489Z,11.50
2023-05-22T01:23:36.787Z,11.60
2023-05-22T01:26:15.915Z,11.60
2023-05-22T01:28:49.064Z,11.60
2023-05-22T01:31:17.927Z,11.60
2023-05-22T01:33:58.175Z,11.60
2023-05-22T01:36:26.738Z,11.70
2023-05-22T01:38:53.787Z,11.70
2023-05-22T01:41:21.893Z,11.70
2023-05-22T01:43:51.563Z,11.80
2023-05-22T01:46:18.943Z,11.90
2023-05-22T01:48:46.169Z,11.90
2023-05-22T01:51:34.687Z,11.90
2023-05-22T01:54:13.068Z,12.00
2023-05-22T01:56:43.237Z,12.00
2023-05-22T01:59:21.081Z,12.10
2023-05-22T02:01:48.742Z,12.00
2023-05-22T02:04:16.439Z,12.00
2023-05-22T02:06:43.532Z,12.10
2023-05-22T02:09:10.898Z,12.10
2023-05-22T02:11:39.071Z,12.10
2023-05-22T02:14:06.321Z,12.10
2023-05-22T02:16:37.011Z,12.10
2023-05-22T02:19:08.009Z,12.10
2023-05-22T02:21:38.634Z,12.10
2023-05-22T02:24:05.916Z,12.20
2023-05-22T02:26:32.955Z,12.20
2023-05-22T02:29:01.131Z,12.20
2023-05-22T02:31:28.383Z,12.20
2023-05-22T02:33:57.643Z,12.20
2023-05-22T02:36:26.541Z,12.20
2023-05-22T02:38:55.760Z,12.20
2023-05-22T02:41:23.902Z,12.20
2023-05-22T02:43:51.556Z,12.20
2023-05-22T02:46:18.624Z,12.20
2023-05-22T02:48:45.941Z,12.20
2023-05-22T02:51:13.559Z,12.20
2023-05-22T02:53:41.371Z,12.20
2023-05-22T02:56:09.053Z,12.20
2023-05-22T02:58:36.602Z,12.20
2023-05-22T03:01:10.668Z,12.20
2023-05-22T03:03:38.047Z,12.30
2023-05-22T03:06:05.295Z,12.20
2023-05-22T03:08:35.382Z,12.20
2023-05-22T03:11:03.111Z,12.20
2023-05-22T03:13:30.390Z,12.20
2023-05-22T03:15:57.477Z,12.20
2023-05-22T03:18:27.968Z,12.10
2023-05-22T03:20:56.221Z,12.20
2023-05-22T03:23:25.820Z,12.20
2023-05-22T03:25:53.845Z,12.20
2023-05-22T03:28:23.624Z,12.20
2023-05-22T03:30:51.439Z,12.20
2023-05-22T03:33:24.089Z,12.20
2023-05-22T03:35:51.644Z,12.30
2023-05-22T03:38:18.773Z,12.30
2023-05-22T03:40:46.053Z,12.30
2023-05-22T03:43:14.596Z,12.30
2023-05-22T03:45:41.739Z,12.20
2023-05-22T03:48:11.006Z,12.30
2023-05-22T03:50:38.432Z,12.30
2023-05-22T03:53:06.341Z,12.20
2023-05-22T03:55:35.417Z,12.20
2023-05-22T03:58:15.860Z,12.10
2023-05-22T04:00:43.284Z,12.20
2023-05-22T04:03:13.508Z,12.10
2023-05-22T04:05:40.887Z,12.10
2023-05-22T04:08:08.344Z,12.10
2023-05-22T04:10:38.978Z,12.10
2023-05-22T04:13:06.373Z,12.10
2023-05-22T04:15:38.159Z,12.10
2023-05-22T04:18:05.299Z,12.10
2023-05-22T04:20:33.860Z,12.10
2023-05-22T04:23:02.076Z,12.10
2023-05-22T04:25:31.819Z,12.10
2023-05-22T04:27:59.752Z,12.10
2023-05-22T04:30:27.212Z,12.20
2023-05-22T04:32:54.977Z,12.10
2023-05-22T04:35:22.678Z,12.10
2023-05-22T04:37:50.663Z,12.10
2023-05-22T04:40:19.133Z,12.10
2023-05-22T04:42:47.644Z,12.10
2023-05-22T04:45:15.366Z,12.10
2023-05-22T04:47:42.583Z,12.10
2023-05-22T04:50:09.845Z,12.10
2023-05-22T04:52:37.678Z,12.20
2023-05-22T04:55:07.131Z,12.10
2023-05-22T04:57:34.690Z,12.20
2023-05-22T05:00:03.292Z,12.30
2023-05-22T05:02:32.990Z,12.30
2023-05-22T05:05:00.209Z,12.30
2023-05-22T05:07:30.966Z,12.40
2023-05-22T05:09:57.972Z,12.50
2023-05-22T05:12:25.365Z,12.50
2023-05-22T05:14:52.715Z,12.50
2023-05-22T05:17:19.949Z,12.50
2023-05-22T05:19:46.991Z,12.50
2023-05-22T05:22:14.357Z,12.70
2023-05-22T05:24:41.625Z,12.70
2023-05-22T05:27:09.227Z,12.70
2023-05-22T05:29:37.262Z,12.70
2023-05-22T05:32:16.495Z,12.80
2023-05-22T05:34:51.819Z,12.80
2023-05-22T05:37:37.449Z,12.90
2023-05-22T05:40:07.590Z,12.90
2023-05-22T05:42:36.941Z,12.90
2023-05-22T05:45:06.177Z,13.10
2023-05-22T05:47:37.148Z,13.10
2023-05-22T05:50:04.564Z,13.00
2023-05-22T05:52:34.905Z,13.00
2023-05-22T05:55:10.557Z,13.00
2023-05-22T05:57:38.244Z,13.00
2023-05-22T06:00:11.850Z,13.00
2023-05-22T06:02:42.579Z,13.10
2023-05-22T06:05:33.898Z,13.10
2023-05-22T06:08:14.113Z,13.20
2023-05-22T06:10:42.753Z,13.30
2023-05-22T06:13:16.389Z,13.40
2023-05-22T06:15:43.612Z,13.50
2023-05-22T06:18:11.382Z,13.50
2023-05-22T06:20:39.868Z,13.50
2023-05-22T06:23:08.611Z,13.50
2023-05-22T06:25:35.780Z,13.60
2023-05-22T06:28:06.510Z,13.60
2023-05-22T06:30:40.114Z,13.60
2023-05-22T06:33:12.774Z,13.60
2023-05-22T06:35:41.180Z,13.60
2023-05-22T06:38:08.599Z,13.70
2023-05-22T06:40:36.494Z,13.80
2023-05-22T06:43:11.545Z,13.90
2023-05-22T06:45:45.566Z,13.90
2023-05-22T06:48:36.348Z,14.00
2023-05-22T06:51:24.596Z,14.10
2023-05-22T06:53:57.191Z,14.20
2023-05-22T06:56:29.760Z,14.00
2023-05-22T06:59:06.258Z,14.10
2023-05-22T07:01:56.638Z,14.10
2023-05-22T07:04:49.095Z,14.20
2023-05-22T07:07:24.517Z,14.30
2023-05-22T07:09:52.812Z,14.20
2023-05-22T07:12:21.094Z,14.20
2023-05-22T07:14:48.184Z,14.30
2023-05-22T07:17:16.042Z,14.30
2023-05-22T07:19:45.118Z,14.50
2023-05-22T07:22:12.499Z,14.50
2023-05-22T07:24:40.830Z,14.50
2023-05-22T07:27:09.349Z,14.60
2023-05-22T07:29:38.188Z,14.60
2023-05-22T07:32:08.132Z,14.80
2023-05-22T07:34:37.802Z,14.80
2023-05-22T07:37:08.311Z,14.80
2023-05-22T07:39:38.251Z,14.70
2023-05-22T07:42:06.590Z,14.60
2023-05-22T07:44:38.913Z,14.60
2023-05-22T07:47:06.336Z,14.50
2023-05-22T07:49:34.762Z,14.40
2023-05-22T07:52:05.006Z,14.30
2023-05-22T07:54:32.316Z,14.30
2023-05-22T07:57:04.309Z,14.40
2023-05-22T07:59:37.824Z,14.80
2023-05-22T08:02:05.414Z,15.10
2023-05-22T08:04:34.788Z,15.30
2023-05-22T08:07:01.898Z,15.40
2023-05-22T08:09:29.784Z,15.60
2023-05-22T08:11:57.703Z,15.60
2023-05-22T08:14:24.822Z,15.60
2023-05-22T08:16:52.121Z,15.60
2023-05-22T08:19:19.436Z,15.50
2023-05-22T08:21:46.742Z,15.60
2023-05-22T08:24:14.056Z,15.80
2023-05-22T08:26:41.421Z,15.80
2023-05-22T08:29:08.546Z,15.90
2023-05-22T08:31:36.196Z,16.10
2023-05-22T08:34:07.416Z,16.30
2023-05-22T08:36:34.535Z,16.40
2023-05-22T08:39:02.590Z,16.60
2023-05-22T08:41:29.851Z,16.70
2023-05-22T08:43:57.233Z,16.80
2023-05-22T08:46:26.652Z,16.60
2023-05-22T08:48:56.248Z,16.50
2023-05-22T08:51:23.818Z,16.30
2023-05-22T08:53:52.004Z,16.20
2023-05-22T08:56:19.090Z,16.00
2023-05-22T08:58:46.377Z,15.80
2023-05-22T09:01:13.671Z,15.60
2023-05-22T09:03:41.071Z,15.50
2023-05-22T09:06:09.566Z,15.50
2023-05-22T09:08:39.620Z,15.70
2023-05-22T09:11:06.958Z,15.80
2023-05-22T09:13:34.702Z,16.00
2023-05-22T09:16:12.115Z,16.20
2023-05-22T09:18:39.657Z,16.40
2023-05-22T09:21:14.323Z,16.60
2023-05-22T09:23:55.302Z,16.60
2023-05-22T09:26:24.725Z,16.50
2023-05-22T09:28:52.397Z,16.40
2023-05-22T09:31:20.115Z,16.30
2023-05-22T09:33:47.385Z,16.00
2023-05-22T09:36:14.892Z,15.90
2023-05-22T09:38:42.051Z,15.80
2023-05-22T09:41:19.376Z,15.90
2023-05-22T09:43:50.479Z,15.90
2023-05-22T09:46:17.929Z,15.80
2023-05-22T09:48:45.413Z,15.80
2023-05-22T09:51:13.403Z,15.80
2023-05-22T09:53:40.653Z,15.80
2023-05-22T09:56:11.689Z,15.70
2023-05-22T09:58:40.512Z,15.70
2023-05-22T10:01:10.683Z,15.80
2023-05-22T10:03:38.057Z,15.80
2023-05-22T10:06:05.393Z,15.80
2023-05-22T10:08:34.828Z,15.80
2023-05-22T10:11:04.123Z,15.90
2023-05-22T10:13:31.990Z,15.80
2023-05-22T10:16:00.330Z,15.80
2023-05-22T10:18:27.791Z,15.70
2023-05-22T10:20:55.597Z,15.60
2023-05-22T10:23:23.531Z,15.80
2023-05-22T10:25:51.591Z,15.90
2023-05-22T10:28:22.641Z,16.00
2023-05-22T10:31:00.732Z,16.10
2023-05-22T10:33:46.154Z,16.20
2023-05-22T10:36:14.946Z,16.50
2023-05-22T10:38:54.462Z,16.80
2023-05-22T10:41:22.564Z,16.80
2023-05-22T10:43:49.852Z,17.10
2023-05-22T10:46:17.092Z,17.40
2023-05-22T10:48:45.869Z,17.70
2023-05-22T10:51:13.350Z,17.80
2023-05-22T10:53:41.528Z,18.20
2023-05-22T10:56:09.900Z,18.60
2023-05-22T10:58:38.228Z,18.70
2023-05-22T11:01:09.740Z,18.70
2023-05-22T11:03:53.433Z,18.70
2023-05-22T11:06:39.503Z,18.70
2023-05-22T11:09:24.907Z,18.70
2023-05-22T11:12:11.036Z,18.50
2023-05-22T11:14:38.644Z,18.50
2023-05-22T11:17:06.537Z,18.60
2023-05-22T11:19:34.809Z,18.70
2023-05-22T11:22:03.077Z,18.70
2023-05-22T11:24:37.300Z,18.70
2023-05-22T11:27:11.455Z,18.70
2023-05-22T11:29:40.861Z,18.70
2023-05-22T11:32:09.787Z,18.70
2023-05-22T11:34:39.398Z,18.70
2023-05-22T11:37:07.013Z,18.70
2023-05-22T11:39:34.730Z,18.60
2023-05-22T11:42:04.732Z,18.30
2023-05-22T11:44:32.014Z,18.20
2023-05-22T11:47:00.512Z,18.10
2023-05-22T11:49:27.707Z,18.20
2023-05-22T11:51:58.285Z,18.20
2023-05-22T11:54:26.439Z,18.10
2023-05-22T11:56:53.942Z,18.00
2023-05-22T11:59:21.712Z,17.70
2023-05-22T12:01:49.789Z,17.60
2023-05-22T12:04:17.553Z,17.30
2023-05-22T12:06:44.758Z,17.10
2023-05-22T12:09:12.696Z,16.90
2023-05-22T12:11:40.120Z,16.90
2023-05-22T12:14:07.889Z,17.00
2023-05-22T12:16:36.464Z,17.20
2023-05-22T12:19:05.632Z,17.20
2023-05-22T12:21:33.151Z,17.30
2023-05-22T12:24:02.868Z,17.50
2023-05-22T12:26:30.937Z,17.70
2023-05-22T12:28:58.748Z,17.90
2023-05-22T12:31:26.336Z,17.90
2023-05-22T12:33:54.178Z,17.90
2023-05-22T12:36:21.638Z,17.90
2023-05-22T12:38:49.164Z,18.10
2023-05-22T12:41:16.408Z,17.90
2023-05-22T12:43:43.745Z,17.90
2023-05-22T12:46:11.117Z,17.60
2023-05-22T12:48:39.869Z,17.60
2023-05-22T12:51:12.621Z,17.70
2023-05-22T12:53:40.448Z,17.70
2023-05-22T12:56:10.635Z,17.60
2023-05-22T12:58:39.970Z,17.50
2023-05-22T13:01:07.391Z,17.50
2023-05-22T13:03:34.934Z,17.60
2023-05-22T13:06:05.098Z,17.80
2023-05-22T13:08:35.520Z,17.70
2023-05-22T13:11:04.720Z,17.70
2023-05-22T13:13:33.942Z,17.70
2023-05-22T13:16:05.620Z,17.80
2023-05-22T13:18:33.217Z,17.80
2023-05-22T13:21:09.035Z,17.80
2023-05-22T13:23:36.469Z,17.70
2023-05-22T13:26:04.751Z,17.70
2023-05-22T13:28:35.477Z,17.60
2023-05-22T13:31:03.527Z,17.50
2023-05-22T13:33:31.048Z,17.50
2023-05-22T13:35:58.543Z,17.40
2023-05-22T13:38:26.455Z,17.40
2023-05-22T13:40:53.820Z,17.30
2023-05-22T13:43:21.012Z,17.30
2023-05-22T13:45:48.458Z,17.30
2023-05-22T13:48:16.481Z,17.40
2023-05-22T13:50:43.801Z,17.50
2023-05-22T13:53:11.370Z,17.70
2023-05-22T13:55:39.082Z,17.90
2023-05-22T13:58:08.786Z,17.90
2023-05-22T14:00:36.456Z,18.00
2023-05-22T14:03:06.766Z,17.90
2023-05-22T14:05:34.444Z,18.00
2023-05-22T14:08:01.698Z,18.20
2023-05-22T14:10:28.794Z,18.30
2023-05-22T14:12:56.187Z,18.40
2023-05-22T14:15:24.290Z,18.40
2023-05-22T14:17:51.467Z,18.70
2023-05-22T14:20:18.957Z,18.80
2023-05-22T14:22:57.011Z,19.10
2023-05-22T14:25:24.865Z,19.30
2023-05-22T14:27:52.814Z,19.50
2023-05-22T14:30:20.108Z,19.80
2023-05-22T14:32:47.688Z,20.00
2023-05-22T14:35:16.851Z,20.10
2023-05-22T14:37:44.279Z,20.10
2023-05-22T14:40:15.604Z,20.10
2023-05-22T14:42:42.868Z,20.00
2023-05-22T14:45:10.322Z,19.90
2023-05-22T14:47:37.455Z,20.10
2023-05-22T14:50:18.062Z,19.80
2023-05-22T14:52:47.291Z,19.80
2023-05-22T14:55:14.697Z,19.80
2023-05-22T14:57:42.283Z,19.70
2023-05-22T15:00:10.419Z,19.90
2023-05-22T15:02:37.886Z,20.40
2023-05-22T15:05:05.849Z,20.70
2023-05-22T15:07:44.214Z,21.20
2023-05-22T15:10:16.600Z,21.20
2023-05-22T15:12:44.615Z,21.00
2023-05-22T15:15:13.764Z,20.80
2023-05-22T15:17:42.923Z,20.80
2023-05-22T15:20:11.013Z,20.90
2023-05-22T15:22:38.457Z,21.00
2023-05-22T15:25:09.309Z,21.00
2023-05-22T15:27:36.620Z,21.10
2023-05-22T15:30:04.665Z,21.10
2023-05-22T15:32:33.972Z,20.70
2023-05-22T15:35:01.046Z,20.90
2023-05-22T15:37:30.815Z,21.00
2023-05-22T15:40:04.561Z,21.10
2023-05-22T15:42:36.975Z,21.20
2023-05-22T15:45:05.586Z,21.30
2023-05-22T15:47:32.925Z,21.00
2023-05-22T15:50:00.753Z,21.00
2023-05-22T15:52:31.025Z,21.20
2023-05-22T15:54:58.973Z,21.20
2023-05-22T15:57:27.633Z,21.20
2023-05-22T15:59:59.487Z,21.30
2023-05-22T16:02:27.214Z,21.60
2023-05-22T16:04:54.698Z,21.60
2023-05-22T16:07:21.962Z,21.70
2023-05-22T16:09:53.036Z,21.60
2023-05-22T16:12:20.579Z,21.50
2023-05-22T16:14:48.234Z,21.60
2023-05-22T16:17:15.890Z,21.60
2023-05-22T16:19:44.091Z,21.40
2023-05-22T16:22:11.776Z,21.50
2023-05-22T16:24:39.110Z,22.40
2023-05-22T16:27:06.486Z,23.20
2023-05-22T16:29:36.680Z,23.70
2023-05-22T16:32:04.597Z,23.80
2023-05-22T16:34:34.295Z,23.90
2023-05-22T16:37:01.352Z,24.30
2023-05-22T16:39:28.798Z,24.30
2023-05-22T16:41:56.115Z,24.50
2023-05-22T16:44:23.275Z,24.80
2023-05-22T16:46:50.695Z,24.70
2023-05-22T16:49:17.998Z,24.70
2023-05-22T16:51:45.087Z,25.10
2023-05-22T16:54:12.389Z,25.10
2023-05-22T16:56:39.748Z,24.40
2023-05-22T16:59:07.057Z,23.80
2023-05-22T17:01:34.585Z,22.80
2023-05-22T17:04:01.752Z,22.00
2023-05-22T17:06:29.834Z,21.30
2023-05-22T17:08:57.952Z,21.10
2023-05-22T17:11:26.389Z,21.10
2023-05-22T17:13:53.692Z,20.90
2023-05-22T17:16:21.243Z,20.90
2023-05-22T17:18:48.397Z,20.80
2023-05-22T17:21:17.608Z,20.80
2023-05-22T17:23:44.795Z,20.50
2023-05-22T17:26:12.127Z,20.30
2023-05-22T17:28:39.449Z,20.40
2023-05-22T17:31:07.730Z,20.40
2023-05-22T17:33:35.158Z,20.50
2023-05-22T17:36:04.645Z,20.40
2023-05-22T17:38:31.890Z,20.30
2023-05-22T17:41:01.639Z,20.20
2023-05-22T17:43:29.600Z,20.00
2023-05-22T17:45:56.844Z,20.00
2023-05-22T17:48:27.436Z,20.00
2023-05-22T17:50:54.640Z,20.00
2023-05-22T17:53:22.165Z,20.00
2023-05-22T17:55:50.173Z,19.80
2023-05-22T17:58:17.635Z,19.50
2023-05-22T18:00:45.906Z,19.40
2023-05-22T18:03:13.477Z,19.40
2023-05-22T18:05:44.977Z,19.30
2023-05-22T18:08:12.550Z,19.20
2023-05-22T18:10:39.983Z,19.00
2023-05-22T18:13:07.400Z,18.90
2023-05-22T18:15:34.837Z,18.80
2023-05-22T18:18:02.850Z,18.60
2023-05-22T18:20:30.081Z,18.50
2023-05-22T18:22:57.744Z,18.40
2023-05-22T18:25:25.324Z,18.40
2023-05-22T18:27:52.644Z,18.30
2023-05-22T18:30:19.857Z,18.10
2023-05-22T18:32:47.188Z,18.10
2023-05-22T18:35:14.604Z,18.00
2023-05-22T18:37:42.490Z,18.00
2023-05-22T18:40:11.423Z,17.80
2023-05-22T18:42:39.099Z,17.70
2023-05-22T18:45:09.790Z,17.60
2023-05-22T18:47:37.409Z,17.50
2023-05-22T18:50:04.982Z,17.40
2023-05-22T18:52:32.858Z,17.30
2023-05-22T18:55:00.354Z,17.20
2023-05-22T18:57:27.525Z,17.10
2023-05-22T18:59:55.221Z,17.00
2023-05-22T19:02:22.958Z,16.80
2023-05-22T19:04:52.760Z,16.80
2023-05-22T19:07:21.583Z,16.70
2023-05-22T19:09:50.023Z,16.60
2023-05-22T19:12:17.269Z,16.50
2023-05-22T19:14:44.317Z,16.50
2023-05-22T19:17:12.659Z,16.40
2023-05-22T19:19:39.875Z,16.30
2023-05-22T19:22:08.376Z,16.20
2023-05-22T19:24:36.578Z,16.20
2023-05-22T19:27:04.949Z,16.20
2023-05-22T19:29:33.350Z,16.10
2023-05-22T19:32:01.252Z,16.00
2023-05-22T19:34:28.890Z,16.00
2023-05-22T19:36:58.022Z,15.90
2023-05-22T19:39:25.694Z,15.80
2023-05-22T19:41:55.170Z,15.80
2023-05-22T19:44:23.265Z,15.70
2023-05-22T19:46:50.687Z,15.60
2023-05-22T19:49:17.998Z,15.60
2023-05-22T19:51:46.426Z,15.50
2023-05-22T19:54:14.451Z,15.40
2023-05-22T19:56:41.879Z,15.30
2023-05-22T19:59:08.973Z,15.30
2023-05-22T20:01:36.705Z,15.20
2023-05-22T20:04:07.274Z,15.20
2023-05-22T20:06:35.290Z,15.10
2023-05-22T20:09:03.736Z,15.00
2023-05-22T20:11:30.814Z,15.00
2023-05-22T20:13:58.413Z,14.90
2023-05-22T20:16:27.736Z,14.80
2023-05-22T20:18:57.415Z,14.80
2023-05-22T20:21:25.645Z,14.80
2023-05-22T20:23:53.486Z,14.80
2023-05-22T20:26:20.964Z,14.70
2023-05-22T20:28:47.999Z,14.60
2023-05-22T20:31:16.500Z,14.60
2023-05-22T20:33:43.830Z,14.50
2023-05-22T20:36:10.932Z,14.50
2023-05-22T20:38:38.218Z,14.40
2023-05-22T20:41:09.560Z,14.40
2023-05-22T20:43:37.283Z,14.30
2023-05-22T20:46:04.882Z,14.30
2023-05-22T20:48:34.018Z,14.30
2023-05-22T20:51:01.768Z,14.20
2023-05-22T20:53:35.590Z,14.20
2023-05-22T20:56:04.821Z,14.10
2023-05-22T20:58:33.386Z,14.00
2023-05-22T21:01:01.346Z,13.90
2023-05-22T21:03:28.491Z,13.90
2023-05-22T21:05:56.725Z,13.80
2023-05-22T21:08:24.342Z,13.80
2023-05-22T21:10:51.489Z,13.70
2023-05-22T21:13:19.091Z,13.70
2023-05-22T21:15:46.352Z,13.60
2023-05-22T21:18:13.817Z,13.60
2023-05-22T21:20:41.494Z,13.50
2023-05-22T21:23:08.994Z,13.50
2023-05-22T21:25:36.771Z,13.50
2023-05-22T21:28:04.197Z,13.40
2023-05-22T21:30:34.796Z,13.40
2023-05-22T21:33:02.594Z,13.40
2023-05-22T21:35:30.595Z,13.30
2023-05-22T21:37:57.839Z,13.30
2023-05-22T21:40:26.959Z,13.20
2023-05-22T21:42:54.424Z,13.10
2023-05-22T21:45:21.886Z,13.10
2023-05-22T21:47:49.203Z,13.10
2023-05-22T21:50:16.813Z,13.10
2023-05-22T21:52:44.354Z,13.00
2023-05-22T21:55:12.308Z,13.00
2023-05-22T21:57:40.092Z,12.90
2023-05-22T22:00:08.287Z,12.90
2023-05-22T22:02:36.622Z,12.90
2023-05-22T22:05:07.782Z,12.80
2023-05-22T22:07:35.247Z,12.80
2023-05-22T22:10:04.862Z,12.80
2023-05-22T22:12:34.915Z,12.70
2023-05-22T22:15:02.874Z,12.70
2023-05-22T22:17:30.350Z,12.70
2023-05-22T22:19:57.887Z,12.60
2023-05-22T22:22:25.355Z,12.60
2023-05-22T22:24:56.086Z,12.50
2023-05-22T22:27:23.929Z,12.50
2023-05-22T22:29:51.075Z,12.40
2023-05-22T22:32:18.335Z,12.40
2023-05-22T22:34:46.740Z,12.40
2023-05-22T22:37:18.328Z,12.30
2023-05-22T22:39:45.537Z,12.20
2023-05-22T22:42:12.891Z,12.20
2023-05-22T22:44:40.369Z,12.20
2023-05-22T22:47:08.119Z,12.10
2023-05-22T22:49:35.675Z,12.10
2023-05-22T22:52:03.693Z,12.10
2023-05-22T22:54:31.152Z,12.00
2023-05-22T22:56:58.404Z,12.00
2023-05-22T22:59:25.566Z,12.00
2023-05-22T23:01:57.413Z,11.90
2023-05-22T23:04:24.810Z,11.90
2023-05-22T23:06:53.707Z,11.80
2023-05-22T23:09:20.997Z,11.80
2023-05-22T23:11:48.653Z,11.80
2023-05-22T23:14:16.012Z,11.80
2023-05-22T23:16:43.681Z,11.80
2023-05-22T23:19:12.443Z,11.70
2023-05-22T23:21:39.692Z,11.70
2023-05-22T23:24:06.994Z,11.60
2023-05-22T23:26:34.394Z,11.60
2023-05-22T23:29:01.929Z,11.60
2023-05-22T23:31:33.946Z,11.50
2023-05-22T23:34:01.669Z,11.60
2023-05-22T23:36:29.212Z,11.50
2023-05-22T23:38:56.394Z,11.50
2023-05-22T23:41:25.541Z,11.40
2023-05-22T23:43:52.799Z,11.40
2023-05-22T23:46:22.275Z,11.40
2023-05-22T23:48:49.427Z,11.30
2023-05-22T23:51:17.242Z,11.30
2023-05-22T23:53:44.535Z,11.30
2023-05-22T23:56:11.703Z,11.30
2023-05-22T23:58:44.228Z,11.30
